<?xml version="1.0" encoding="UTF-8" standalone="no" ?>
<gpx xmlns="http://www.topografix.com/GPX/1/1" xmlns:xsi="http://www.w3.org/2001/XMLSchema-instance" xsi:schemaLocation="http://www.topografix.com/GPX/1/1 http://www.topografix.com/GPX/1/1/gpx.xsd" version="1.1" creator="VisuGPX - https://www.visugpx.com">
  <metadata>
    <name>GR738 - Jour 4 - De l'Aup Bernard à Fond de France</name>
    <desc><![CDATA[Steve Farrugia (5899279)]]></desc>
  </metadata>
  <trk>
    <name><![CDATA[Steve Farrugia (5900636)]]></name>
    <desc><![CDATA[Steve Farrugia (5900636)]]></desc>
    <extensions>
      <line xmlns="http://www.topografix.com/GPX/gpx_style/0/2">
        <color>00FF00</color>
        <width>4</width>
      </line>
    </extensions>
    <trkseg>
      <trkpt lat="45.31563" lon="6.10833">
        <ele>1731.5</ele>
        <time>2022-07-19T12:21:00Z</time>
      </trkpt>
      <trkpt lat="45.31564" lon="6.10835">
        <ele>1732</ele>
        <time>2022-07-19T12:21:14Z</time>
      </trkpt>
      <trkpt lat="45.31563" lon="6.10836">
        <ele>1732</ele>
        <time>2022-07-19T12:21:21Z</time>
      </trkpt>
      <trkpt lat="45.31505" lon="6.10784">
        <ele>1684.53</ele>
        <time>2022-07-19T12:23:00Z</time>
      </trkpt>
      <trkpt lat="45.31513" lon="6.10797">
        <ele>1684</ele>
        <time>2022-07-19T12:23:03Z</time>
      </trkpt>
      <trkpt lat="45.31506" lon="6.10784">
        <ele>1684</ele>
        <time>2022-07-19T12:23:14Z</time>
      </trkpt>
      <trkpt lat="45.31469" lon="6.1075">
        <ele>1713</ele>
        <time>2022-07-19T12:24:03Z</time>
      </trkpt>
      <trkpt lat="45.31447" lon="6.1075">
        <ele>1709</ele>
        <time>2022-07-19T12:25:02Z</time>
      </trkpt>
      <trkpt lat="45.31413" lon="6.10726">
        <ele>1709.21</ele>
        <time>2022-07-19T12:26:00Z</time>
      </trkpt>
      <trkpt lat="45.31413" lon="6.10727">
        <ele>1710</ele>
        <time>2022-07-19T12:26:01Z</time>
      </trkpt>
      <trkpt lat="45.31407" lon="6.10725">
        <ele>1710</ele>
        <time>2022-07-19T12:26:06Z</time>
      </trkpt>
      <trkpt lat="45.31384" lon="6.10725">
        <ele>1716</ele>
        <time>2022-07-19T12:27:05Z</time>
      </trkpt>
      <trkpt lat="45.31371" lon="6.10668">
        <ele>1721.58</ele>
        <time>2022-07-19T12:28:00Z</time>
      </trkpt>
      <trkpt lat="45.31371" lon="6.1067">
        <ele>1721</ele>
        <time>2022-07-19T12:28:01Z</time>
      </trkpt>
      <trkpt lat="45.31371" lon="6.10664">
        <ele>1722</ele>
        <time>2022-07-19T12:28:05Z</time>
      </trkpt>
      <trkpt lat="45.31364" lon="6.10595">
        <ele>1736</ele>
        <time>2022-07-19T12:29:04Z</time>
      </trkpt>
      <trkpt lat="45.31375" lon="6.10494">
        <ele>1746.4</ele>
        <time>2022-07-19T12:30:45Z</time>
      </trkpt>
      <trkpt lat="45.31376" lon="6.10495">
        <ele>1746</ele>
        <time>2022-07-19T12:30:57Z</time>
      </trkpt>
      <trkpt lat="45.31375" lon="6.10495">
        <ele>1746</ele>
        <time>2022-07-19T12:30:57Z</time>
      </trkpt>
      <trkpt lat="45.31347" lon="6.10465">
        <ele>1769</ele>
        <time>2022-07-19T12:31:58Z</time>
      </trkpt>
      <trkpt lat="45.31343" lon="6.1052">
        <ele>1772</ele>
        <time>2022-07-19T12:32:59Z</time>
      </trkpt>
      <trkpt lat="45.31342" lon="6.1052">
        <ele>1771.3</ele>
        <time>2022-07-19T12:33:00Z</time>
      </trkpt>
      <trkpt lat="45.31343" lon="6.1052">
        <ele>1772</ele>
        <time>2022-07-19T12:33:00Z</time>
      </trkpt>
      <trkpt lat="45.31289" lon="6.10537">
        <ele>1793</ele>
        <time>2022-07-19T12:34:53Z</time>
      </trkpt>
      <trkpt lat="45.31249" lon="6.10557">
        <ele>1788.8</ele>
        <time>2022-07-19T12:35:45Z</time>
      </trkpt>
      <trkpt lat="45.3125" lon="6.10558">
        <ele>1790</ele>
        <time>2022-07-19T12:35:55Z</time>
      </trkpt>
      <trkpt lat="45.3125" lon="6.10558">
        <ele>1790</ele>
        <time>2022-07-19T12:35:55Z</time>
      </trkpt>
      <trkpt lat="45.31192" lon="6.10577">
        <ele>1840</ele>
        <time>2022-07-19T12:36:54Z</time>
      </trkpt>
      <trkpt lat="45.31182" lon="6.10647">
        <ele>1791.3</ele>
        <time>2022-07-19T12:37:45Z</time>
      </trkpt>
      <trkpt lat="45.31183" lon="6.10647">
        <ele>1792</ele>
        <time>2022-07-19T12:37:54Z</time>
      </trkpt>
      <trkpt lat="45.31183" lon="6.10648">
        <ele>1792</ele>
        <time>2022-07-19T12:37:56Z</time>
      </trkpt>
      <trkpt lat="45.31153" lon="6.10684">
        <ele>1799</ele>
        <time>2022-07-19T12:38:53Z</time>
      </trkpt>
      <trkpt lat="45.3112" lon="6.10707">
        <ele>1813.87</ele>
        <time>2022-07-19T12:39:45Z</time>
      </trkpt>
      <trkpt lat="45.31122" lon="6.10704">
        <ele>1813</ele>
        <time>2022-07-19T12:39:53Z</time>
      </trkpt>
      <trkpt lat="45.31121" lon="6.10707">
        <ele>1814</ele>
        <time>2022-07-19T12:39:57Z</time>
      </trkpt>
      <trkpt lat="45.31051" lon="6.10712">
        <ele>1832</ele>
        <time>2022-07-19T12:41:42Z</time>
      </trkpt>
      <trkpt lat="45.31005" lon="6.10713">
        <ele>1821.41</ele>
        <time>2022-07-19T12:42:30Z</time>
      </trkpt>
      <trkpt lat="45.31005" lon="6.10714">
        <ele>1820</ele>
        <time>2022-07-19T12:42:41Z</time>
      </trkpt>
      <trkpt lat="45.31005" lon="6.10714">
        <ele>1820</ele>
        <time>2022-07-19T12:42:42Z</time>
      </trkpt>
      <trkpt lat="45.31043" lon="6.10711">
        <ele>1822</ele>
        <time>2022-07-19T12:43:41Z</time>
      </trkpt>
      <trkpt lat="45.31072" lon="6.10724">
        <ele>1826.44</ele>
        <time>2022-07-19T12:44:30Z</time>
      </trkpt>
      <trkpt lat="45.31072" lon="6.10723">
        <ele>1827</ele>
        <time>2022-07-19T12:44:40Z</time>
      </trkpt>
      <trkpt lat="45.31072" lon="6.10724">
        <ele>1827</ele>
        <time>2022-07-19T12:44:42Z</time>
      </trkpt>
      <trkpt lat="45.31038" lon="6.10754">
        <ele>1834</ele>
        <time>2022-07-19T12:45:39Z</time>
      </trkpt>
      <trkpt lat="45.3103" lon="6.10785">
        <ele>1841</ele>
        <time>2022-07-19T12:46:39Z</time>
      </trkpt>
      <trkpt lat="45.31003" lon="6.10833">
        <ele>1841.56</ele>
        <time>2022-07-19T12:47:30Z</time>
      </trkpt>
      <trkpt lat="45.31004" lon="6.10834">
        <ele>1841</ele>
        <time>2022-07-19T12:47:36Z</time>
      </trkpt>
      <trkpt lat="45.31003" lon="6.10837">
        <ele>1841</ele>
        <time>2022-07-19T12:47:38Z</time>
      </trkpt>
      <trkpt lat="45.30975" lon="6.10857">
        <ele>1849</ele>
        <time>2022-07-19T12:48:37Z</time>
      </trkpt>
      <trkpt lat="45.30952" lon="6.10881">
        <ele>1859.24</ele>
        <time>2022-07-19T12:49:30Z</time>
      </trkpt>
      <trkpt lat="45.30952" lon="6.10882">
        <ele>1858</ele>
        <time>2022-07-19T12:49:36Z</time>
      </trkpt>
      <trkpt lat="45.30952" lon="6.10882">
        <ele>1858</ele>
        <time>2022-07-19T12:49:37Z</time>
      </trkpt>
      <trkpt lat="45.30933" lon="6.10901">
        <ele>1867</ele>
        <time>2022-07-19T12:50:35Z</time>
      </trkpt>
      <trkpt lat="45.30916" lon="6.10919">
        <ele>1884</ele>
        <time>2022-07-19T12:51:35Z</time>
      </trkpt>
      <trkpt lat="45.30897" lon="6.10938">
        <ele>1883</ele>
        <time>2022-07-19T12:52:34Z</time>
      </trkpt>
      <trkpt lat="45.30891" lon="6.10952">
        <ele>1890</ele>
        <time>2022-07-19T12:54:28Z</time>
      </trkpt>
      <trkpt lat="45.30905" lon="6.10965">
        <ele>1898</ele>
        <time>2022-07-19T12:55:28Z</time>
      </trkpt>
      <trkpt lat="45.30888" lon="6.10973">
        <ele>1904.92</ele>
        <time>2022-07-19T12:56:15Z</time>
      </trkpt>
      <trkpt lat="45.30889" lon="6.10975">
        <ele>1904</ele>
        <time>2022-07-19T12:56:26Z</time>
      </trkpt>
      <trkpt lat="45.30888" lon="6.10976">
        <ele>1904</ele>
        <time>2022-07-19T12:56:27Z</time>
      </trkpt>
      <trkpt lat="45.30874" lon="6.10985">
        <ele>1916</ele>
        <time>2022-07-19T12:57:27Z</time>
      </trkpt>
      <trkpt lat="45.30859" lon="6.10988">
        <ele>1917.67</ele>
        <time>2022-07-19T12:58:15Z</time>
      </trkpt>
      <trkpt lat="45.3086" lon="6.10989">
        <ele>1918</ele>
        <time>2022-07-19T12:58:26Z</time>
      </trkpt>
      <trkpt lat="45.3086" lon="6.10989">
        <ele>1918</ele>
        <time>2022-07-19T12:58:26Z</time>
      </trkpt>
      <trkpt lat="45.30849" lon="6.10998">
        <ele>1928</ele>
        <time>2022-07-19T12:59:25Z</time>
      </trkpt>
      <trkpt lat="45.30837" lon="6.11008">
        <ele>1934</ele>
        <time>2022-07-19T13:00:25Z</time>
      </trkpt>
      <trkpt lat="45.30819" lon="6.11022">
        <ele>1943</ele>
        <time>2022-07-19T13:01:24Z</time>
      </trkpt>
      <trkpt lat="45.30794" lon="6.11039">
        <ele>1946</ele>
        <time>2022-07-19T13:02:23Z</time>
      </trkpt>
      <trkpt lat="45.30774" lon="6.11031">
        <ele>1948.37</ele>
        <time>2022-07-19T13:03:15Z</time>
      </trkpt>
      <trkpt lat="45.30775" lon="6.11033">
        <ele>1947</ele>
        <time>2022-07-19T13:03:16Z</time>
      </trkpt>
      <trkpt lat="45.30741" lon="6.11042">
        <ele>1944</ele>
        <time>2022-07-19T13:04:15Z</time>
      </trkpt>
      <trkpt lat="45.30729" lon="6.11027">
        <ele>1955</ele>
        <time>2022-07-19T13:05:14Z</time>
      </trkpt>
      <trkpt lat="45.30729" lon="6.11027">
        <ele>1953.5</ele>
        <time>2022-07-19T13:05:15Z</time>
      </trkpt>
      <trkpt lat="45.30729" lon="6.11027">
        <ele>1954</ele>
        <time>2022-07-19T13:05:17Z</time>
      </trkpt>
      <trkpt lat="45.30711" lon="6.11026">
        <ele>1953</ele>
        <time>2022-07-19T13:06:14Z</time>
      </trkpt>
      <trkpt lat="45.30699" lon="6.11033">
        <ele>1964</ele>
        <time>2022-07-19T13:07:13Z</time>
      </trkpt>
      <trkpt lat="45.30681" lon="6.11035">
        <ele>1968</ele>
        <time>2022-07-19T13:08:12Z</time>
      </trkpt>
      <trkpt lat="45.3065" lon="6.11045">
        <ele>1970</ele>
        <time>2022-07-19T13:09:12Z</time>
      </trkpt>
      <trkpt lat="45.30619" lon="6.11018">
        <ele>1968.91</ele>
        <time>2022-07-19T13:11:00Z</time>
      </trkpt>
      <trkpt lat="45.30619" lon="6.11019">
        <ele>1970</ele>
        <time>2022-07-19T13:11:05Z</time>
      </trkpt>
      <trkpt lat="45.3062" lon="6.11019">
        <ele>1970</ele>
        <time>2022-07-19T13:11:05Z</time>
      </trkpt>
      <trkpt lat="45.30601" lon="6.10997">
        <ele>1975</ele>
        <time>2022-07-19T13:12:04Z</time>
      </trkpt>
      <trkpt lat="45.3059" lon="6.10969">
        <ele>1981.78</ele>
        <time>2022-07-19T13:13:00Z</time>
      </trkpt>
      <trkpt lat="45.3059" lon="6.1097">
        <ele>1982</ele>
        <time>2022-07-19T13:13:03Z</time>
      </trkpt>
      <trkpt lat="45.3059" lon="6.10969">
        <ele>1982</ele>
        <time>2022-07-19T13:13:05Z</time>
      </trkpt>
      <trkpt lat="45.30572" lon="6.10952">
        <ele>1987</ele>
        <time>2022-07-19T13:14:03Z</time>
      </trkpt>
      <trkpt lat="45.30554" lon="6.10929">
        <ele>1992</ele>
        <time>2022-07-19T13:15:02Z</time>
      </trkpt>
      <trkpt lat="45.30538" lon="6.10915">
        <ele>1994</ele>
        <time>2022-07-19T13:16:01Z</time>
      </trkpt>
      <trkpt lat="45.30528" lon="6.10866">
        <ele>1989.52</ele>
        <time>2022-07-19T13:16:45Z</time>
      </trkpt>
      <trkpt lat="45.30528" lon="6.10866">
        <ele>1990</ele>
        <time>2022-07-19T13:16:58Z</time>
      </trkpt>
      <trkpt lat="45.30528" lon="6.10865">
        <ele>1990</ele>
        <time>2022-07-19T13:17:01Z</time>
      </trkpt>
      <trkpt lat="45.30515" lon="6.10857">
        <ele>1990</ele>
        <time>2022-07-19T13:18:00Z</time>
      </trkpt>
      <trkpt lat="45.30513" lon="6.10855">
        <ele>1989.52</ele>
        <time>2022-07-19T13:18:45Z</time>
      </trkpt>
      <trkpt lat="45.30513" lon="6.10855">
        <ele>1990</ele>
        <time>2022-07-19T13:18:58Z</time>
      </trkpt>
      <trkpt lat="45.30515" lon="6.1086">
        <ele>1990</ele>
        <time>2022-07-19T13:35:00Z</time>
      </trkpt>
      <trkpt lat="45.305" lon="6.10871">
        <ele>1982</ele>
        <time>2022-07-19T13:36:35Z</time>
      </trkpt>
      <trkpt lat="45.30477" lon="6.10872">
        <ele>1970</ele>
        <time>2022-07-19T13:37:34Z</time>
      </trkpt>
      <trkpt lat="45.30452" lon="6.10875">
        <ele>1955</ele>
        <time>2022-07-19T13:38:33Z</time>
      </trkpt>
      <trkpt lat="45.30433" lon="6.10906">
        <ele>1943</ele>
        <time>2022-07-19T13:39:32Z</time>
      </trkpt>
      <trkpt lat="45.30411" lon="6.10932">
        <ele>1935.56</ele>
        <time>2022-07-19T13:40:15Z</time>
      </trkpt>
      <trkpt lat="45.30412" lon="6.10932">
        <ele>1935</ele>
        <time>2022-07-19T13:40:26Z</time>
      </trkpt>
      <trkpt lat="45.30398" lon="6.10909">
        <ele>1930</ele>
        <time>2022-07-19T13:40:56Z</time>
      </trkpt>
      <trkpt lat="45.30376" lon="6.10823">
        <ele>1915.12</ele>
        <time>2022-07-19T13:42:15Z</time>
      </trkpt>
      <trkpt lat="45.30375" lon="6.10828">
        <ele>1915</ele>
        <time>2022-07-19T13:42:25Z</time>
      </trkpt>
      <trkpt lat="45.30376" lon="6.10825">
        <ele>1914</ele>
        <time>2022-07-19T13:42:27Z</time>
      </trkpt>
      <trkpt lat="45.30366" lon="6.10754">
        <ele>1914</ele>
        <time>2022-07-19T13:43:24Z</time>
      </trkpt>
      <trkpt lat="45.30343" lon="6.1071">
        <ele>1902</ele>
        <time>2022-07-19T13:44:23Z</time>
      </trkpt>
      <trkpt lat="45.30325" lon="6.1067">
        <ele>1892.2</ele>
        <time>2022-07-19T13:45:15Z</time>
      </trkpt>
      <trkpt lat="45.30326" lon="6.10671">
        <ele>1892</ele>
        <time>2022-07-19T13:45:21Z</time>
      </trkpt>
      <trkpt lat="45.30325" lon="6.10669">
        <ele>1889</ele>
        <time>2022-07-19T13:45:22Z</time>
      </trkpt>
      <trkpt lat="45.303" lon="6.10648">
        <ele>1876</ele>
        <time>2022-07-19T13:46:21Z</time>
      </trkpt>
      <trkpt lat="45.30273" lon="6.10606">
        <ele>1859.24</ele>
        <time>2022-07-19T13:47:15Z</time>
      </trkpt>
      <trkpt lat="45.30273" lon="6.10607">
        <ele>1858</ele>
        <time>2022-07-19T13:47:20Z</time>
      </trkpt>
      <trkpt lat="45.30273" lon="6.10607">
        <ele>1858</ele>
        <time>2022-07-19T13:47:21Z</time>
      </trkpt>
      <trkpt lat="45.30251" lon="6.10542">
        <ele>1851</ele>
        <time>2022-07-19T13:48:20Z</time>
      </trkpt>
      <trkpt lat="45.30205" lon="6.10549">
        <ele>1837</ele>
        <time>2022-07-19T13:49:24Z</time>
      </trkpt>
      <trkpt lat="45.30165" lon="6.10567">
        <ele>1831.47</ele>
        <time>2022-07-19T13:50:00Z</time>
      </trkpt>
      <trkpt lat="45.30166" lon="6.10569">
        <ele>1832</ele>
        <time>2022-07-19T13:50:12Z</time>
      </trkpt>
      <trkpt lat="45.30135" lon="6.10579">
        <ele>1823</ele>
        <time>2022-07-19T13:51:11Z</time>
      </trkpt>
      <trkpt lat="45.30112" lon="6.10591">
        <ele>1826.44</ele>
        <time>2022-07-19T13:52:00Z</time>
      </trkpt>
      <trkpt lat="45.30113" lon="6.10591">
        <ele>1825</ele>
        <time>2022-07-19T13:52:10Z</time>
      </trkpt>
      <trkpt lat="45.30113" lon="6.10592">
        <ele>1826</ele>
        <time>2022-07-19T13:52:12Z</time>
      </trkpt>
      <trkpt lat="45.30092" lon="6.1061">
        <ele>1834</ele>
        <time>2022-07-19T13:53:09Z</time>
      </trkpt>
      <trkpt lat="45.30078" lon="6.10637">
        <ele>1849</ele>
        <time>2022-07-19T13:54:09Z</time>
      </trkpt>
      <trkpt lat="45.30056" lon="6.10696">
        <ele>1854.18</ele>
        <time>2022-07-19T13:55:00Z</time>
      </trkpt>
      <trkpt lat="45.30056" lon="6.10697">
        <ele>1853</ele>
        <time>2022-07-19T13:55:07Z</time>
      </trkpt>
      <trkpt lat="45.30054" lon="6.10695">
        <ele>1854</ele>
        <time>2022-07-19T13:55:08Z</time>
      </trkpt>
      <trkpt lat="45.30028" lon="6.10762">
        <ele>1859</ele>
        <time>2022-07-19T13:56:07Z</time>
      </trkpt>
      <trkpt lat="45.29982" lon="6.10797">
        <ele>1861.77</ele>
        <time>2022-07-19T13:57:00Z</time>
      </trkpt>
      <trkpt lat="45.29983" lon="6.10797">
        <ele>1862</ele>
        <time>2022-07-19T13:57:07Z</time>
      </trkpt>
      <trkpt lat="45.29982" lon="6.10798">
        <ele>1862</ele>
        <time>2022-07-19T13:57:08Z</time>
      </trkpt>
      <trkpt lat="45.29917" lon="6.10829">
        <ele>1862</ele>
        <time>2022-07-19T13:58:06Z</time>
      </trkpt>
      <trkpt lat="45.29849" lon="6.10851">
        <ele>1866.83</ele>
        <time>2022-07-19T13:59:00Z</time>
      </trkpt>
      <trkpt lat="45.29851" lon="6.10851">
        <ele>1865</ele>
        <time>2022-07-19T13:59:06Z</time>
      </trkpt>
      <trkpt lat="45.29849" lon="6.10851">
        <ele>1866</ele>
        <time>2022-07-19T13:59:09Z</time>
      </trkpt>
      <trkpt lat="45.29816" lon="6.10841">
        <ele>1867</ele>
        <time>2022-07-19T14:00:05Z</time>
      </trkpt>
      <trkpt lat="45.29751" lon="6.10853">
        <ele>1864.3</ele>
        <time>2022-07-19T14:01:00Z</time>
      </trkpt>
      <trkpt lat="45.29755" lon="6.10851">
        <ele>1865</ele>
        <time>2022-07-19T14:01:04Z</time>
      </trkpt>
      <trkpt lat="45.29752" lon="6.10854">
        <ele>1865</ele>
        <time>2022-07-19T14:01:10Z</time>
      </trkpt>
      <trkpt lat="45.29706" lon="6.10846">
        <ele>1864</ele>
        <time>2022-07-19T14:02:04Z</time>
      </trkpt>
      <trkpt lat="45.29669" lon="6.10857">
        <ele>1864.3</ele>
        <time>2022-07-19T14:03:00Z</time>
      </trkpt>
      <trkpt lat="45.29671" lon="6.10859">
        <ele>1865</ele>
        <time>2022-07-19T14:03:09Z</time>
      </trkpt>
      <trkpt lat="45.29669" lon="6.10858">
        <ele>1865</ele>
        <time>2022-07-19T14:03:10Z</time>
      </trkpt>
      <trkpt lat="45.2958" lon="6.10868">
        <ele>1857</ele>
        <time>2022-07-19T14:04:55Z</time>
      </trkpt>
      <trkpt lat="45.29563" lon="6.10872">
        <ele>1856.71</ele>
        <time>2022-07-19T14:05:00Z</time>
      </trkpt>
      <trkpt lat="45.29564" lon="6.10874">
        <ele>1858</ele>
        <time>2022-07-19T14:05:11Z</time>
      </trkpt>
      <trkpt lat="45.29518" lon="6.10887">
        <ele>1871</ele>
        <time>2022-07-19T14:05:55Z</time>
      </trkpt>
      <trkpt lat="45.29483" lon="6.10867">
        <ele>1861</ele>
        <time>2022-07-19T14:06:54Z</time>
      </trkpt>
      <trkpt lat="45.29475" lon="6.10853">
        <ele>1864.3</ele>
        <time>2022-07-19T14:07:00Z</time>
      </trkpt>
      <trkpt lat="45.29476" lon="6.10853">
        <ele>1864</ele>
        <time>2022-07-19T14:07:11Z</time>
      </trkpt>
      <trkpt lat="45.29463" lon="6.10853">
        <ele>1870</ele>
        <time>2022-07-19T14:07:53Z</time>
      </trkpt>
      <trkpt lat="45.29424" lon="6.10748">
        <ele>1861.77</ele>
        <time>2022-07-19T14:09:45Z</time>
      </trkpt>
      <trkpt lat="45.29424" lon="6.10749">
        <ele>1862</ele>
        <time>2022-07-19T14:09:52Z</time>
      </trkpt>
      <trkpt lat="45.29383" lon="6.10711">
        <ele>1846</ele>
        <time>2022-07-19T14:11:43Z</time>
      </trkpt>
      <trkpt lat="45.29381" lon="6.10715">
        <ele>1844.08</ele>
        <time>2022-07-19T14:11:45Z</time>
      </trkpt>
      <trkpt lat="45.29382" lon="6.10716">
        <ele>1845</ele>
        <time>2022-07-19T14:11:53Z</time>
      </trkpt>
      <trkpt lat="45.29364" lon="6.10734">
        <ele>1840</ele>
        <time>2022-07-19T14:12:44Z</time>
      </trkpt>
      <trkpt lat="45.29304" lon="6.10725">
        <ele>1840</ele>
        <time>2022-07-19T14:13:44Z</time>
      </trkpt>
      <trkpt lat="45.29299" lon="6.1071">
        <ele>1837</ele>
        <time>2022-07-19T14:19:54Z</time>
      </trkpt>
      <trkpt lat="45.29282" lon="6.1067">
        <ele>1823.92</ele>
        <time>2022-07-19T14:21:30Z</time>
      </trkpt>
      <trkpt lat="45.29283" lon="6.10671">
        <ele>1824</ele>
        <time>2022-07-19T14:21:32Z</time>
      </trkpt>
      <trkpt lat="45.29285" lon="6.10676">
        <ele>1822</ele>
        <time>2022-07-19T14:22:32Z</time>
      </trkpt>
      <trkpt lat="45.29284" lon="6.10673">
        <ele>1823.92</ele>
        <time>2022-07-19T14:23:30Z</time>
      </trkpt>
      <trkpt lat="45.29285" lon="6.10674">
        <ele>1823</ele>
        <time>2022-07-19T14:23:33Z</time>
      </trkpt>
      <trkpt lat="45.29283" lon="6.10664">
        <ele>1827</ele>
        <time>2022-07-19T14:36:15Z</time>
      </trkpt>
      <trkpt lat="45.29287" lon="6.10596">
        <ele>1825</ele>
        <time>2022-07-19T14:37:15Z</time>
      </trkpt>
      <trkpt lat="45.29321" lon="6.10527">
        <ele>1813.87</ele>
        <time>2022-07-19T14:38:00Z</time>
      </trkpt>
      <trkpt lat="45.29321" lon="6.10527">
        <ele>1815</ele>
        <time>2022-07-19T14:38:10Z</time>
      </trkpt>
      <trkpt lat="45.29322" lon="6.10522">
        <ele>1813</ele>
        <time>2022-07-19T14:38:14Z</time>
      </trkpt>
      <trkpt lat="45.29291" lon="6.10441">
        <ele>1798</ele>
        <time>2022-07-19T14:39:14Z</time>
      </trkpt>
      <trkpt lat="45.29246" lon="6.10402">
        <ele>1793.8</ele>
        <time>2022-07-19T14:40:00Z</time>
      </trkpt>
      <trkpt lat="45.29247" lon="6.10403">
        <ele>1794</ele>
        <time>2022-07-19T14:40:10Z</time>
      </trkpt>
      <trkpt lat="45.29246" lon="6.10398">
        <ele>1785</ele>
        <time>2022-07-19T14:40:13Z</time>
      </trkpt>
      <trkpt lat="45.29178" lon="6.10256">
        <ele>1751.37</ele>
        <time>2022-07-19T14:42:00Z</time>
      </trkpt>
      <trkpt lat="45.29181" lon="6.10261">
        <ele>1750</ele>
        <time>2022-07-19T14:42:05Z</time>
      </trkpt>
      <trkpt lat="45.29179" lon="6.10257">
        <ele>1751</ele>
        <time>2022-07-19T14:42:11Z</time>
      </trkpt>
      <trkpt lat="45.29139" lon="6.10213">
        <ele>1734</ele>
        <time>2022-07-19T14:43:05Z</time>
      </trkpt>
      <trkpt lat="45.29113" lon="6.10143">
        <ele>1714.15</ele>
        <time>2022-07-19T14:44:00Z</time>
      </trkpt>
      <trkpt lat="45.29114" lon="6.10155">
        <ele>1717</ele>
        <time>2022-07-19T14:44:05Z</time>
      </trkpt>
      <trkpt lat="45.29114" lon="6.10143">
        <ele>1713</ele>
        <time>2022-07-19T14:44:11Z</time>
      </trkpt>
      <trkpt lat="45.29127" lon="6.10071">
        <ele>1697</ele>
        <time>2022-07-19T14:45:04Z</time>
      </trkpt>
      <trkpt lat="45.29189" lon="6.10025">
        <ele>1674.68</ele>
        <time>2022-07-19T14:46:00Z</time>
      </trkpt>
      <trkpt lat="45.2918" lon="6.10027">
        <ele>1678</ele>
        <time>2022-07-19T14:46:03Z</time>
      </trkpt>
      <trkpt lat="45.2919" lon="6.10025">
        <ele>1675</ele>
        <time>2022-07-19T14:46:12Z</time>
      </trkpt>
      <trkpt lat="45.29211" lon="6.09995">
        <ele>1657</ele>
        <time>2022-07-19T14:47:03Z</time>
      </trkpt>
      <trkpt lat="45.2924" lon="6.09954">
        <ele>1633</ele>
        <time>2022-07-19T14:48:00Z</time>
      </trkpt>
      <trkpt lat="45.29231" lon="6.09942">
        <ele>1636</ele>
        <time>2022-07-19T14:48:02Z</time>
      </trkpt>
      <trkpt lat="45.29241" lon="6.09954">
        <ele>1633</ele>
        <time>2022-07-19T14:48:12Z</time>
      </trkpt>
      <trkpt lat="45.29267" lon="6.09969">
        <ele>1619</ele>
        <time>2022-07-19T14:49:01Z</time>
      </trkpt>
      <trkpt lat="45.29293" lon="6.09909">
        <ele>1586</ele>
        <time>2022-07-19T14:50:10Z</time>
      </trkpt>
      <trkpt lat="45.29292" lon="6.0984">
        <ele>1577.02</ele>
        <time>2022-07-19T14:50:45Z</time>
      </trkpt>
      <trkpt lat="45.29293" lon="6.09841">
        <ele>1576</ele>
        <time>2022-07-19T14:50:54Z</time>
      </trkpt>
      <trkpt lat="45.29253" lon="6.09819">
        <ele>1594</ele>
        <time>2022-07-19T14:51:55Z</time>
      </trkpt>
      <trkpt lat="45.29243" lon="6.09786">
        <ele>1535.94</ele>
        <time>2022-07-19T14:52:45Z</time>
      </trkpt>
      <trkpt lat="45.29243" lon="6.09787">
        <ele>1535</ele>
        <time>2022-07-19T14:52:54Z</time>
      </trkpt>
      <trkpt lat="45.29243" lon="6.09787">
        <ele>1535</ele>
        <time>2022-07-19T14:52:55Z</time>
      </trkpt>
      <trkpt lat="45.292" lon="6.09718">
        <ele>1520</ele>
        <time>2022-07-19T14:53:54Z</time>
      </trkpt>
      <trkpt lat="45.29199" lon="6.09668">
        <ele>1499.9</ele>
        <time>2022-07-19T14:54:45Z</time>
      </trkpt>
      <trkpt lat="45.29199" lon="6.09671">
        <ele>1501</ele>
        <time>2022-07-19T14:54:53Z</time>
      </trkpt>
      <trkpt lat="45.29199" lon="6.09669">
        <ele>1499</ele>
        <time>2022-07-19T14:54:56Z</time>
      </trkpt>
      <trkpt lat="45.29156" lon="6.09665">
        <ele>1507</ele>
        <time>2022-07-19T14:55:52Z</time>
      </trkpt>
      <trkpt lat="45.29125" lon="6.09683">
        <ele>1490.33</ele>
        <time>2022-07-19T14:56:45Z</time>
      </trkpt>
      <trkpt lat="45.29125" lon="6.09684">
        <ele>1491</ele>
        <time>2022-07-19T14:56:52Z</time>
      </trkpt>
      <trkpt lat="45.29126" lon="6.09685">
        <ele>1490</ele>
        <time>2022-07-19T14:56:56Z</time>
      </trkpt>
      <trkpt lat="45.29104" lon="6.0962">
        <ele>1472</ele>
        <time>2022-07-19T14:58:44Z</time>
      </trkpt>
      <trkpt lat="45.29081" lon="6.0957">
        <ele>1466.44</ele>
        <time>2022-07-19T14:59:30Z</time>
      </trkpt>
      <trkpt lat="45.29081" lon="6.09572">
        <ele>1466</ele>
        <time>2022-07-19T14:59:41Z</time>
      </trkpt>
      <trkpt lat="45.29083" lon="6.09573">
        <ele>1465</ele>
        <time>2022-07-19T14:59:43Z</time>
      </trkpt>
      <trkpt lat="45.29109" lon="6.09504">
        <ele>1451</ele>
        <time>2022-07-19T15:00:43Z</time>
      </trkpt>
      <trkpt lat="45.2914" lon="6.09456">
        <ele>1437.88</ele>
        <time>2022-07-19T15:01:30Z</time>
      </trkpt>
      <trkpt lat="45.2914" lon="6.09457">
        <ele>1439</ele>
        <time>2022-07-19T15:01:42Z</time>
      </trkpt>
      <trkpt lat="45.29139" lon="6.09457">
        <ele>1439</ele>
        <time>2022-07-19T15:01:42Z</time>
      </trkpt>
      <trkpt lat="45.2916" lon="6.09367">
        <ele>1422</ele>
        <time>2022-07-19T15:02:41Z</time>
      </trkpt>
      <trkpt lat="45.29149" lon="6.09314">
        <ele>1390.55</ele>
        <time>2022-07-19T15:03:30Z</time>
      </trkpt>
      <trkpt lat="45.29153" lon="6.0932">
        <ele>1384</ele>
        <time>2022-07-19T15:03:41Z</time>
      </trkpt>
      <trkpt lat="45.2915" lon="6.09315">
        <ele>1390</ele>
        <time>2022-07-19T15:03:43Z</time>
      </trkpt>
      <trkpt lat="45.2918" lon="6.09303">
        <ele>1423</ele>
        <time>2022-07-19T15:04:42Z</time>
      </trkpt>
      <trkpt lat="45.29166" lon="6.09267">
        <ele>1376.42</ele>
        <time>2022-07-19T15:05:30Z</time>
      </trkpt>
      <trkpt lat="45.29167" lon="6.09268">
        <ele>1377</ele>
        <time>2022-07-19T15:05:41Z</time>
      </trkpt>
      <trkpt lat="45.29167" lon="6.09268">
        <ele>1376</ele>
        <time>2022-07-19T15:05:44Z</time>
      </trkpt>
      <trkpt lat="45.29179" lon="6.09193">
        <ele>1355</ele>
        <time>2022-07-19T15:06:40Z</time>
      </trkpt>
      <trkpt lat="45.29172" lon="6.09119">
        <ele>1329.51</ele>
        <time>2022-07-19T15:07:30Z</time>
      </trkpt>
      <trkpt lat="45.29175" lon="6.09125">
        <ele>1332</ele>
        <time>2022-07-19T15:07:39Z</time>
      </trkpt>
      <trkpt lat="45.29172" lon="6.0912">
        <ele>1328</ele>
        <time>2022-07-19T15:07:44Z</time>
      </trkpt>
      <trkpt lat="45.29205" lon="6.08961">
        <ele>1290</ele>
        <time>2022-07-19T15:09:28Z</time>
      </trkpt>
      <trkpt lat="45.29196" lon="6.08949">
        <ele>1344</ele>
        <time>2022-07-19T15:09:45Z</time>
      </trkpt>
      <trkpt lat="45.29194" lon="6.08947">
        <ele>1343.55</ele>
        <time>2022-07-19T15:09:45Z</time>
      </trkpt>
      <trkpt lat="45.29219" lon="6.0897">
        <ele>1331</ele>
        <time>2022-07-19T15:10:27Z</time>
      </trkpt>
      <trkpt lat="45.29235" lon="6.09034">
        <ele>1240</ele>
        <time>2022-07-19T15:11:27Z</time>
      </trkpt>
      <trkpt lat="45.29261" lon="6.0902">
        <ele>1307</ele>
        <time>2022-07-19T15:11:45Z</time>
      </trkpt>
      <trkpt lat="45.2926" lon="6.09018">
        <ele>1306.17</ele>
        <time>2022-07-19T15:11:45Z</time>
      </trkpt>
      <trkpt lat="45.2929" lon="6.09019">
        <ele>1292</ele>
        <time>2022-07-19T15:12:27Z</time>
      </trkpt>
      <trkpt lat="45.29315" lon="6.09056">
        <ele>1244</ele>
        <time>2022-07-19T15:13:26Z</time>
      </trkpt>
      <trkpt lat="45.29351" lon="6.09048">
        <ele>1227.38</ele>
        <time>2022-07-19T15:14:15Z</time>
      </trkpt>
      <trkpt lat="45.29351" lon="6.09048">
        <ele>1228</ele>
        <time>2022-07-19T15:14:24Z</time>
      </trkpt>
      <trkpt lat="45.2935" lon="6.09052">
        <ele>1272</ele>
        <time>2022-07-19T15:14:26Z</time>
      </trkpt>
      <trkpt lat="45.29369" lon="6.09073">
        <ele>1259</ele>
        <time>2022-07-19T15:15:27Z</time>
      </trkpt>
      <trkpt lat="45.29369" lon="6.09121">
        <ele>1199.79</ele>
        <time>2022-07-19T15:16:15Z</time>
      </trkpt>
      <trkpt lat="45.2937" lon="6.09123">
        <ele>1200</ele>
        <time>2022-07-19T15:16:25Z</time>
      </trkpt>
      <trkpt lat="45.29373" lon="6.09125">
        <ele>1199</ele>
        <time>2022-07-19T15:16:26Z</time>
      </trkpt>
      <trkpt lat="45.29434" lon="6.08997">
        <ele>1163.15</ele>
        <time>2022-07-19T15:18:15Z</time>
      </trkpt>
      <trkpt lat="45.29429" lon="6.08996">
        <ele>1167</ele>
        <time>2022-07-19T15:18:18Z</time>
      </trkpt>
      <trkpt lat="45.29434" lon="6.08999">
        <ele>1164</ele>
        <time>2022-07-19T15:18:26Z</time>
      </trkpt>
      <trkpt lat="45.29447" lon="6.08948">
        <ele>1151</ele>
        <time>2022-07-19T15:19:18Z</time>
      </trkpt>
      <trkpt lat="45.2947" lon="6.08842">
        <ele>1172.29</ele>
        <time>2022-07-19T15:20:15Z</time>
      </trkpt>
      <trkpt lat="45.29467" lon="6.08847">
        <ele>1175</ele>
        <time>2022-07-19T15:20:17Z</time>
      </trkpt>
      <trkpt lat="45.29471" lon="6.08844">
        <ele>1173</ele>
        <time>2022-07-19T15:20:26Z</time>
      </trkpt>
      <trkpt lat="45.2949" lon="6.08771">
        <ele>1157</ele>
        <time>2022-07-19T15:21:18Z</time>
      </trkpt>
      <trkpt lat="45.29529" lon="6.08679">
        <ele>1140.35</ele>
        <time>2022-07-19T15:22:15Z</time>
      </trkpt>
      <trkpt lat="45.2952" lon="6.08687">
        <ele>1144</ele>
        <time>2022-07-19T15:22:17Z</time>
      </trkpt>
      <trkpt lat="45.2953" lon="6.08681">
        <ele>1141</ele>
        <time>2022-07-19T15:22:27Z</time>
      </trkpt>
      <trkpt lat="45.29558" lon="6.08625">
        <ele>1091</ele>
        <time>2022-07-19T15:23:16Z</time>
      </trkpt>
      <trkpt lat="45.29573" lon="6.08512">
        <ele>1072.35</ele>
        <time>2022-07-19T15:24:15Z</time>
      </trkpt>
      <trkpt lat="45.29571" lon="6.08523">
        <ele>1073</ele>
        <time>2022-07-19T15:24:24Z</time>
      </trkpt>
      <trkpt lat="45.29574" lon="6.08514">
        <ele>1073</ele>
        <time>2022-07-19T15:24:28Z</time>
      </trkpt>
      <trkpt lat="45.29652" lon="6.0836">
        <ele>1054</ele>
        <time>2022-07-19T15:26:05Z</time>
      </trkpt>
      <trkpt lat="45.29651" lon="6.08321">
        <ele>1040.84</ele>
        <time>2022-07-19T15:26:15Z</time>
      </trkpt>
      <trkpt lat="45.29652" lon="6.08321">
        <ele>1042</ele>
        <time>2022-07-19T15:26:28Z</time>
      </trkpt>
      <trkpt lat="45.29667" lon="6.08248">
        <ele>1031</ele>
        <time>2022-07-19T15:27:04Z</time>
      </trkpt>
      <trkpt lat="45.29653" lon="6.08142">
        <ele>1018</ele>
        <time>2022-07-19T15:28:07Z</time>
      </trkpt>
      <trkpt lat="45.29658" lon="6.08104">
        <ele>1013.92</ele>
        <time>2022-07-19T15:28:15Z</time>
      </trkpt>
      <trkpt lat="45.29658" lon="6.08105">
        <ele>1014</ele>
        <time>2022-07-19T15:28:29Z</time>
      </trkpt>
      <trkpt lat="45.29656" lon="6.08041">
        <ele>967</ele>
        <time>2022-07-19T15:29:07Z</time>
      </trkpt>
      <trkpt lat="45.29663" lon="6.0795">
        <ele>1009</ele>
        <time>2022-07-19T15:30:25Z</time>
      </trkpt>
      <trkpt lat="45.29657" lon="6.07947">
        <ele>1007</ele>
        <time>2022-07-19T15:30:30Z</time>
      </trkpt>
      <trkpt lat="45.29657" lon="6.07945">
        <ele>1007.21</ele>
        <time>2022-07-19T15:30:30Z</time>
      </trkpt>
      <trkpt lat="45.29587" lon="6.07995">
        <ele>1001</ele>
        <time>2022-07-19T15:31:47Z</time>
      </trkpt>
      <trkpt lat="45.2954" lon="6.08023">
        <ele>1002.74</ele>
        <time>2022-07-19T15:32:30Z</time>
      </trkpt>
      <trkpt lat="45.2954" lon="6.08023">
        <ele>1003</ele>
        <time>2022-07-19T15:32:30Z</time>
      </trkpt>
      <trkpt lat="45.2952" lon="6.08027">
        <ele>1003</ele>
        <time>2022-07-19T15:32:46Z</time>
      </trkpt>
      <trkpt lat="45.29418" lon="6.08029">
        <ele>1005</ele>
        <time>2022-07-19T15:33:57Z</time>
      </trkpt>
      <trkpt lat="45.29384" lon="6.08008">
        <ele>1004.97</ele>
        <time>2022-07-19T15:34:30Z</time>
      </trkpt>
      <trkpt lat="45.29384" lon="6.08008">
        <ele>1006</ele>
        <time>2022-07-19T15:34:31Z</time>
      </trkpt>
      <trkpt lat="45.29345" lon="6.07986">
        <ele>1023</ele>
        <time>2022-07-19T15:34:57Z</time>
      </trkpt>
      <trkpt lat="45.29312" lon="6.07989">
        <ele>997</ele>
        <time>2022-07-19T15:35:56Z</time>
      </trkpt>
      <trkpt lat="45.29291" lon="6.07992">
        <ele>998.27</ele>
        <time>2022-07-19T15:36:30Z</time>
      </trkpt>
      <trkpt lat="45.29292" lon="6.07993">
        <ele>999</ele>
        <time>2022-07-19T15:36:31Z</time>
      </trkpt>
      <trkpt lat="45.29287" lon="6.07989">
        <ele>1004</ele>
        <time>2022-07-19T15:36:55Z</time>
      </trkpt>
      <trkpt lat="45.29191" lon="6.07984">
        <ele>1052.08</ele>
        <time>2022-07-19T15:38:30Z</time>
      </trkpt>
      <trkpt lat="45.29191" lon="6.07986">
        <ele>1053</ele>
        <time>2022-07-19T15:38:33Z</time>
      </trkpt>
      <trkpt lat="45.29192" lon="6.07983">
        <ele>1052</ele>
        <time>2022-07-19T15:38:34Z</time>
      </trkpt>
      <trkpt lat="45.29149" lon="6.08018">
        <ele>1091</ele>
        <time>2022-07-19T15:39:52Z</time>
      </trkpt>
      <trkpt lat="45.29118" lon="6.08057">
        <ele>1036.34</ele>
        <time>2022-07-19T15:40:30Z</time>
      </trkpt>
      <trkpt lat="45.29118" lon="6.08059">
        <ele>1036</ele>
        <time>2022-07-19T15:40:33Z</time>
      </trkpt>
      <trkpt lat="45.29104" lon="6.0805">
        <ele>1063</ele>
        <time>2022-07-19T15:40:51Z</time>
      </trkpt>
      <trkpt lat="45.29049" lon="6.08032">
        <ele>1061</ele>
        <time>2022-07-19T15:41:50Z</time>
      </trkpt>
      <trkpt lat="45.29009" lon="6.08016">
        <ele>1065.59</ele>
        <time>2022-07-19T15:42:30Z</time>
      </trkpt>
      <trkpt lat="45.29009" lon="6.08017">
        <ele>1066</ele>
        <time>2022-07-19T15:42:34Z</time>
      </trkpt>
      <trkpt lat="45.28995" lon="6.08001">
        <ele>1067</ele>
        <time>2022-07-19T15:42:49Z</time>
      </trkpt>
      <trkpt lat="45.28934" lon="6.07847">
        <ele>1063.34</ele>
        <time>2022-07-19T15:44:30Z</time>
      </trkpt>
      <trkpt lat="45.28937" lon="6.07851">
        <ele>1064</ele>
        <time>2022-07-19T15:44:32Z</time>
      </trkpt>
      <trkpt lat="45.28935" lon="6.07848">
        <ele>1064</ele>
        <time>2022-07-19T15:44:35Z</time>
      </trkpt>
      <trkpt lat="45.28893" lon="6.07757">
        <ele>1054</ele>
        <time>2022-07-19T15:45:41Z</time>
      </trkpt>
      <trkpt lat="45.28841" lon="6.07699">
        <ele>1049.83</ele>
        <time>2022-07-19T15:46:30Z</time>
      </trkpt>
      <trkpt lat="45.28841" lon="6.077">
        <ele>1049</ele>
        <time>2022-07-19T15:46:36Z</time>
      </trkpt>
      <trkpt lat="45.28837" lon="6.07699">
        <ele>1049</ele>
        <time>2022-07-19T15:46:40Z</time>
      </trkpt>
      <trkpt lat="45.28769" lon="6.077">
        <ele>1051</ele>
        <time>2022-07-19T15:47:39Z</time>
      </trkpt>
      <trkpt lat="45.28705" lon="6.07739">
        <ele>1052.08</ele>
        <time>2022-07-19T15:48:30Z</time>
      </trkpt>
      <trkpt lat="45.28705" lon="6.07739">
        <ele>1053</ele>
        <time>2022-07-19T15:48:37Z</time>
      </trkpt>
      <trkpt lat="45.28705" lon="6.0774">
        <ele>1053</ele>
        <time>2022-07-19T15:48:38Z</time>
      </trkpt>
      <trkpt lat="45.28653" lon="6.07773">
        <ele>1053</ele>
        <time>2022-07-19T15:49:38Z</time>
      </trkpt>
      <trkpt lat="45.28579" lon="6.07738">
        <ele>1059</ele>
        <time>2022-07-19T15:50:45Z</time>
      </trkpt>
      <trkpt lat="45.28578" lon="6.07738">
        <ele>1059</ele>
        <time>2022-07-19T15:50:45Z</time>
      </trkpt>
      <trkpt lat="45.28578" lon="6.07737">
        <ele>1058.83</ele>
        <time>2022-07-19T15:50:45Z</time>
      </trkpt>
      <trkpt lat="45.28482" lon="6.07819">
        <ele>1061</ele>
        <time>2022-07-19T15:52:33Z</time>
      </trkpt>
      <trkpt lat="45.28465" lon="6.07808">
        <ele>1061.08</ele>
        <time>2022-07-19T15:52:45Z</time>
      </trkpt>
      <trkpt lat="45.28465" lon="6.07808">
        <ele>1062</ele>
        <time>2022-07-19T15:52:46Z</time>
      </trkpt>
      <trkpt lat="45.28395" lon="6.07805">
        <ele>1065</ele>
        <time>2022-07-19T15:53:35Z</time>
      </trkpt>
      <trkpt lat="45.28325" lon="6.07812">
        <ele>1069</ele>
        <time>2022-07-19T15:54:35Z</time>
      </trkpt>
      <trkpt lat="45.28312" lon="6.07817">
        <ele>1070.1</ele>
        <time>2022-07-19T15:54:45Z</time>
      </trkpt>
      <trkpt lat="45.28313" lon="6.07817">
        <ele>1070</ele>
        <time>2022-07-19T15:54:47Z</time>
      </trkpt>
      <trkpt lat="45.28265" lon="6.07833">
        <ele>1074</ele>
        <time>2022-07-19T15:55:34Z</time>
      </trkpt>
      <trkpt lat="45.28187" lon="6.07797">
        <ele>1076.87</ele>
        <time>2022-07-19T15:56:45Z</time>
      </trkpt>
      <trkpt lat="45.28189" lon="6.07799">
        <ele>1077</ele>
        <time>2022-07-19T15:56:46Z</time>
      </trkpt>
      <trkpt lat="45.28188" lon="6.07798">
        <ele>1077</ele>
        <time>2022-07-19T15:56:48Z</time>
      </trkpt>
      <trkpt lat="45.28116" lon="6.0775">
        <ele>1083</ele>
        <time>2022-07-19T15:58:04Z</time>
      </trkpt>
      <trkpt lat="45.28113" lon="6.07711">
        <ele>1083.64</ele>
        <time>2022-07-19T15:58:30Z</time>
      </trkpt>
      <trkpt lat="45.28114" lon="6.07713">
        <ele>1084</ele>
        <time>2022-07-19T15:58:39Z</time>
      </trkpt>
    </trkseg>
  </trk>
</gpx>